createdAt,value
2022-07-30T00:04:16.852Z,101412.81
2022-07-30T00:09:20.807Z,101410.41
2022-07-30T00:14:23.411Z,101403.78
2022-07-30T00:19:26.003Z,101396.72
2022-07-30T00:24:30.417Z,101397.56
2022-07-30T00:29:33.055Z,101401.09
2022-07-30T00:34:35.775Z,101404.91
2022-07-30T00:39:39.796Z,101396.50
2022-07-30T00:44:42.889Z,101390.50
2022-07-30T00:49:45.574Z,101402.94
2022-07-30T00:54:49.501Z,101408.44
2022-07-30T00:59:52.106Z,101411.28
2022-07-30T01:04:54.811Z,101413.22
2022-07-30T01:09:58.704Z,101409.13
2022-07-30T01:15:03.438Z,101414.38
2022-07-30T01:20:09.250Z,101413.50
2022-07-30T01:25:20.161Z,101415.53
2022-07-30T01:30:28.220Z,101413.84
2022-07-30T01:35:33.673Z,101416.41
2022-07-30T01:40:39.075Z,101418.38
2022-07-30T01:45:44.553Z,101415.94
2022-07-30T01:50:51.871Z,101409.63
2022-07-30T01:55:56.847Z,101415.63
2022-07-30T02:01:01.026Z,101422.22
2022-07-30T02:06:09.250Z,101420.84
2022-07-30T02:11:15.969Z,101416.63
2022-07-30T02:16:25.414Z,101424.16
2022-07-30T02:21:37.155Z,101428.19
2022-07-30T02:26:42.776Z,101434.06
2022-07-30T02:31:47.222Z,101426.34
2022-07-30T02:36:51.794Z,101420.66
2022-07-30T02:41:57.384Z,101420.91
2022-07-30T02:47:04.934Z,101428.53
2022-07-30T02:52:16.186Z,101430.44
2022-07-30T02:57:22.150Z,101416.75
2022-07-30T03:02:29.738Z,101421.38
2022-07-30T03:07:36.313Z,101420.00
2022-07-30T03:12:41.589Z,101431.81
2022-07-30T03:17:47.625Z,101434.47
2022-07-30T03:22:54.024Z,101436.91
2022-07-30T03:27:59.183Z,101435.41
2022-07-30T03:33:04.352Z,101427.16
2022-07-30T03:38:07.647Z,101444.63
2022-07-30T03:43:32.336Z,101448.19
2022-07-30T03:48:37.027Z,101449.31
2022-07-30T03:53:42.137Z,101456.69
2022-07-30T03:59:03.931Z,101455.78
2022-07-30T04:04:10.475Z,101445.13
2022-07-30T04:09:15.294Z,101454.84
2022-07-30T04:14:18.750Z,101464.72
2022-07-30T04:19:27.635Z,101477.66
2022-07-30T04:24:32.004Z,101485.91
2022-07-30T04:29:36.002Z,101484.84
2022-07-30T04:34:47.280Z,101497.84
2022-07-30T04:39:54.117Z,101419.72
2022-07-30T04:44:58.187Z,101504.06
2022-07-30T04:50:11.252Z,101519.19
2022-07-30T04:55:15.305Z,101516.28
2022-07-30T05:00:20.232Z,101518.75
2022-07-30T05:05:26.167Z,101523.13
2022-07-30T05:10:30.272Z,101525.66
2022-07-30T05:15:36.040Z,101535.16
2022-07-30T05:20:42.367Z,101544.88
2022-07-30T05:25:51.639Z,101538.78
2022-07-30T05:31:08.077Z,101544.66
2022-07-30T05:36:13.872Z,101554.75
2022-07-30T05:41:30.659Z,101553.56
2022-07-30T05:46:42.886Z,101553.03
2022-07-30T05:51:47.132Z,101561.84
2022-07-30T05:56:50.068Z,101557.63
2022-07-30T06:02:06.650Z,101558.41
2022-07-30T06:07:28.660Z,101564.22
2022-07-30T06:12:32.991Z,101564.28
2022-07-30T06:17:39.746Z,101568.19
2022-07-30T06:22:51.375Z,101571.13
2022-07-30T06:28:15.634Z,101576.53
2022-07-30T06:33:24.232Z,101581.56
2022-07-30T06:38:28.566Z,101591.19
2022-07-30T06:43:37.131Z,101591.38
2022-07-30T06:49:06.531Z,101586.34
2022-07-30T06:54:11.213Z,101588.16
2022-07-30T06:59:32.738Z,101590.84
2022-07-30T07:05:07.889Z,101590.22
2022-07-30T07:10:12.261Z,101588.91
2022-07-30T07:15:15.099Z,101594.31
2022-07-30T07:20:18.457Z,101587.25
2022-07-30T07:25:27.287Z,101598.31
2022-07-30T07:30:30.514Z,101601.16
2022-07-30T07:35:48.606Z,101601.47
2022-07-30T07:40:56.891Z,101603.47
2022-07-30T07:46:00.076Z,101597.13
2022-07-30T07:51:09.538Z,101609.06
2022-07-30T07:56:14.118Z,101599.56
2022-07-30T08:01:17.955Z,101603.25
2022-07-30T08:06:39.491Z,101594.75
2022-07-30T08:12:02.205Z,101598.16
2022-07-30T08:17:25.071Z,101598.41
2022-07-30T08:22:47.899Z,101601.09
2022-07-30T08:27:53.800Z,101605.88
2022-07-30T08:32:58.604Z,101611.16
2022-07-30T08:38:01.493Z,101605.88
2022-07-30T08:43:08.138Z,101608.88
2022-07-30T08:48:16.689Z,101609.22
2022-07-30T08:53:21.967Z,101611.59
2022-07-30T08:58:30.385Z,101604.38
2022-07-30T09:03:34.100Z,101605.00
2022-07-30T09:08:38.324Z,101612.25
2022-07-30T09:13:44.476Z,101619.44
2022-07-30T09:18:49.509Z,101614.69
2022-07-30T09:23:57.081Z,101607.81
2022-07-30T09:29:21.343Z,101607.63
2022-07-30T09:34:42.747Z,101602.97
2022-07-30T09:40:13.464Z,101604.75
2022-07-30T09:45:57.184Z,101610.66
2022-07-30T09:51:00.435Z,101607.50
2022-07-30T09:56:25.223Z,101615.81
2022-07-30T10:01:56.231Z,101607.56
2022-07-30T10:07:25.011Z,101603.28
2022-07-30T10:12:34.009Z,101609.06
2022-07-30T10:17:39.457Z,101608.28
2022-07-30T10:23:08.290Z,101605.97
2022-07-30T10:28:11.564Z,101611.69
2022-07-30T10:33:34.821Z,101616.16
2022-07-30T10:38:42.990Z,101613.06
2022-07-30T10:44:15.725Z,101613.22
2022-07-30T10:49:20.866Z,101616.47
2022-07-30T10:54:40.519Z,101614.47
2022-07-30T11:00:15.193Z,101616.25
2022-07-30T11:05:44.947Z,101612.41
2022-07-30T11:10:50.221Z,101607.53
2022-07-30T11:15:55.507Z,101609.81
2022-07-30T11:21:21.232Z,101607.09
2022-07-30T11:26:51.119Z,101603.81
2022-07-30T11:31:56.865Z,101599.00
2022-07-30T11:37:19.129Z,101605.84
2022-07-30T11:42:36.892Z,101594.91
2022-07-30T11:47:39.548Z,101604.09
2022-07-30T11:52:43.684Z,101594.34
2022-07-30T11:57:46.264Z,101597.97
2022-07-30T12:07:57.999Z,101592.63
2022-07-30T12:13:11.884Z,101586.59
2022-07-30T12:18:26.205Z,101588.78
2022-07-30T12:23:31.575Z,101596.06
2022-07-30T12:28:36.655Z,101583.59
2022-07-30T12:33:42.250Z,101589.00
2022-07-30T12:38:50.331Z,101577.81
2022-07-30T12:43:54.370Z,101581.47
2022-07-30T12:48:58.392Z,101564.69
2022-07-30T12:54:19.485Z,101580.44
2022-07-30T12:59:23.224Z,101574.63
2022-07-30T13:04:26.402Z,101574.84
2022-07-30T13:09:30.562Z,101578.47
2022-07-30T13:14:33.628Z,101588.84
2022-07-30T13:19:36.321Z,101581.94
2022-07-30T13:24:40.407Z,101580.50
2022-07-30T13:29:43.017Z,101581.16
2022-07-30T13:34:45.703Z,101582.69
2022-07-30T13:39:49.936Z,101545.97
2022-07-30T13:44:52.502Z,101580.97
2022-07-30T13:49:55.062Z,101576.03
2022-07-30T13:54:58.989Z,101578.69
2022-07-30T14:00:02.154Z,101571.97
2022-07-30T14:05:07.923Z,101568.91
2022-07-30T14:10:11.931Z,101564.56
2022-07-30T14:15:17.754Z,101562.47
2022-07-30T14:20:21.257Z,101558.56
2022-07-30T14:25:25.752Z,101545.19
2022-07-30T14:30:30.361Z,101553.41
2022-07-30T14:57:03.703Z,101534.28
2022-07-30T15:02:10.652Z,101536.59
2022-07-30T15:07:13.902Z,101534.66
2022-07-30T15:12:22.710Z,101535.31
2022-07-30T15:17:29.478Z,101529.00
2022-07-30T15:22:33.336Z,101536.97
2022-07-30T15:27:37.635Z,101538.59
2022-07-30T15:32:40.338Z,101536.44
2022-07-30T15:37:43.800Z,101528.66
2022-07-30T15:42:47.746Z,101528.84
2022-07-30T15:47:50.819Z,101532.09
2022-07-30T15:52:54.059Z,101532.94
2022-07-30T15:58:04.442Z,101531.28
2022-07-30T16:03:09.204Z,101540.06
2022-07-30T16:08:11.825Z,101541.28
2022-07-30T16:13:21.184Z,101545.94
2022-07-30T16:18:23.756Z,101539.53
2022-07-30T16:23:26.412Z,101539.75
2022-07-30T16:28:30.308Z,101516.28
2022-07-30T16:33:32.936Z,101524.75
2022-07-30T16:38:35.801Z,101522.53
2022-07-30T16:43:39.704Z,101530.16
2022-07-30T16:48:42.272Z,101524.28
2022-07-30T16:53:49.401Z,101521.72
2022-07-30T16:58:53.295Z,101517.72
2022-07-30T17:03:56.262Z,101525.69
2022-07-30T17:08:58.851Z,101517.44
2022-07-30T17:14:03.008Z,101523.38
2022-07-30T17:19:09.387Z,101502.75
2022-07-30T17:24:13.527Z,101511.53
2022-07-30T17:29:17.756Z,101528.06
2022-07-30T17:34:20.922Z,101524.03
2022-07-30T17:40:19.690Z,101509.31
2022-07-30T17:44:48.079Z,101536.69
2022-07-30T17:49:50.660Z,101521.84
2022-07-30T17:54:53.345Z,101532.81
2022-07-30T17:59:57.747Z,101530.84
2022-07-30T18:05:00.353Z,101525.25
2022-07-30T18:10:03.814Z,101530.34
2022-07-30T18:15:09.208Z,101528.13
2022-07-30T18:20:12.614Z,101535.91
2022-07-30T18:25:18.008Z,101530.34
2022-07-30T18:30:23.569Z,101532.19
2022-07-30T18:35:26.693Z,101539.28
2022-07-30T18:40:30.008Z,101542.97
2022-07-30T18:45:37.133Z,101551.72
2022-07-30T18:50:40.425Z,101543.25
2022-07-30T18:55:43.236Z,101540.19
2022-07-30T19:00:47.539Z,101545.75
2022-07-30T19:05:50.143Z,101545.25
2022-07-30T19:10:52.780Z,101547.41
2022-07-30T19:15:56.713Z,101542.50
2022-07-30T19:20:59.368Z,101524.56
2022-07-30T19:26:01.948Z,101543.31
2022-07-30T19:31:06.360Z,101546.81
2022-07-30T19:36:09.023Z,101548.00
2022-07-30T19:41:12.003Z,101557.09
2022-07-30T19:46:18.215Z,101554.59
2022-07-30T19:51:25.039Z,101556.91
2022-07-30T19:56:28.479Z,101547.13
2022-07-30T20:01:40.528Z,101556.22
2022-07-30T20:06:46.168Z,101552.84
2022-07-30T20:11:49.308Z,101551.81
2022-07-30T20:16:54.506Z,101546.53
2022-07-30T20:21:57.949Z,101553.22
2022-07-30T20:27:01.625Z,101562.97
2022-07-30T20:32:25.796Z,101566.16
2022-07-30T20:37:28.616Z,101565.66
2022-07-30T20:42:33.109Z,101566.16
2022-07-30T20:47:38.901Z,101558.53
2022-07-30T20:52:46.585Z,101560.69
2022-07-30T20:58:01.223Z,101562.25
2022-07-30T21:03:16.182Z,101561.66
2022-07-30T21:08:19.216Z,101563.81
2022-07-30T21:13:22.906Z,101559.97
2022-07-30T21:18:29.100Z,101553.22
2022-07-30T21:23:31.855Z,101538.38
2022-07-30T21:28:36.200Z,101537.69
2022-07-30T21:33:40.835Z,101539.38
2022-07-30T21:38:43.635Z,101515.59
2022-07-30T21:43:49.245Z,101537.19
2022-07-30T21:48:56.661Z,101526.16
2022-07-30T21:54:02.487Z,101522.13
2022-07-30T21:59:10.014Z,101530.06
2022-07-30T22:04:16.503Z,101534.72
2022-07-30T22:09:33.114Z,101529.94
2022-07-30T22:14:37.799Z,101529.47
2022-07-30T22:19:41.705Z,101521.38
2022-07-30T22:24:46.548Z,101526.56
2022-07-30T22:29:49.615Z,101520.78
2022-07-30T22:34:54.225Z,101519.63
2022-07-30T22:39:56.805Z,101489.56
2022-07-30T22:45:00.579Z,101521.88
2022-07-30T22:50:05.242Z,101514.88
2022-07-30T22:55:10.443Z,101490.72
2022-07-30T23:00:27.956Z,101522.69
2022-07-30T23:05:35.356Z,101518.31
2022-07-30T23:10:39.034Z,101515.47
2022-07-30T23:15:43.522Z,101508.75
2022-07-30T23:20:47.434Z,101509.16
2022-07-30T23:25:50.115Z,101514.38
2022-07-30T23:30:52.671Z,101502.63
2022-07-30T23:35:56.569Z,101498.22
2022-07-30T23:41:01.758Z,101491.44
2022-07-30T23:46:04.963Z,101490.56
2022-07-30T23:51:13.908Z,101468.41
2022-07-30T23:56:17.742Z,101483.22
